Time;durP1;ratioP1;P1;durP2;ratioP2;P2;SDS_P1;SDS_P2;PMS_P1;PMS_P2;Temp;Humidity;BMP_temperature;BMP_pressure;BME280_temperature;BME280_humidity;BME280_pressure;Samples;Min_cycle;Max_cycle;Signal;HPM_P1;HPM_P2
2021/06/14 00:01:34;;;;;;;12.05;3.78;;;;;;;14.89;63.14;102159.94;5086655;28;20028;-72
2021/06/14 00:03:59;;;;;;;10.27;4.63;;;;;;;14.80;63.50;102153.00;5087085;28;20032;-72
2021/06/14 00:06:25;;;;;;;8.05;4.40;;;;;;;14.63;64.16;102156.47;5073304;28;20062;-72
2021/06/14 00:08:51;;;;;;;10.40;4.20;;;;;;;14.50;64.59;102149.78;5089441;28;20265;-73
2021/06/14 00:11:16;;;;;;;8.13;4.20;;;;;;;14.43;64.76;102148.75;5090624;28;20066;-73
2021/06/14 00:13:42;;;;;;;5.25;3.42;;;;;;;14.38;65.25;102143.16;5088992;28;20424;-72
2021/06/14 00:16:09;;;;;;;8.73;4.50;;;;;;;14.41;65.02;102150.69;5090305;28;20028;-71
2021/06/14 00:18:35;;;;;;;14.27;4.63;;;;;;;14.43;64.95;102140.09;5087509;28;20038;-71
2021/06/14 00:21:08;;;;;;;7.82;3.97;;;;;;;14.45;64.73;102145.97;5078452;28;20028;-72
2021/06/14 00:23:33;;;;;;;6.82;3.60;;;;;;;14.46;64.75;102138.00;5087038;28;20032;-71
2021/06/14 00:26:02;;;;;;;7.85;3.83;;;;;;;14.49;64.70;102136.91;5088469;28;20042;-72
2021/06/14 00:28:27;;;;;;;8.75;4.10;;;;;;;14.50;64.52;102131.50;5084787;28;20043;-72
2021/06/14 00:30:53;;;;;;;7.47;4.55;;;;;;;14.43;64.78;102133.09;5069723;28;20422;-72
2021/06/14 00:33:20;;;;;;;9.23;4.38;;;;;;;14.27;65.33;102127.72;5086158;28;20130;-72
2021/06/14 00:35:47;;;;;;;9.20;4.03;;;;;;;14.12;65.79;102123.00;5064405;28;20625;-72
2021/06/14 00:38:15;;;;;;;8.13;3.97;;;;;;;13.96;66.24;102122.84;5083360;28;20147;-71
2021/06/14 00:40:41;;;;;;;13.75;4.68;;;;;;;13.83;66.70;102131.00;5069279;28;20043;-71
2021/06/14 00:43:07;;;;;;;13.27;4.20;;;;;;;13.73;66.89;102128.44;5087871;28;20023;-72
2021/06/14 00:45:39;;;;;;;8.40;4.50;;;;;;;13.72;67.08;102124.19;5066584;28;20085;-73
2021/06/14 00:48:05;;;;;;;8.35;4.13;;;;;;;13.76;66.86;102125.53;5085541;28;20119;-72
2021/06/14 00:51:09;;;;;;;10.07;4.70;;;;;;;13.86;66.46;102122.06;5087339;28;20032;-72
2021/06/14 00:53:42;;;;;;;9.15;4.30;;;;;;;13.94;66.02;102115.16;5030844;28;20040;-72
2021/06/14 00:56:14;;;;;;;7.82;4.20;;;;;;;14.01;65.90;102120.59;5070584;28;20048;-72
2021/06/14 00:58:42;;;;;;;9.25;4.68;;;;;;;14.05;65.51;102121.94;5086623;28;20032;-72
2021/06/14 01:01:09;;;;;;;10.48;5.25;;;;;;;14.06;65.24;102121.00;5084246;28;20399;-71
2021/06/14 01:03:35;;;;;;;11.73;4.78;;;;;;;14.08;65.06;102113.84;5065089;28;20036;-72
2021/06/14 01:06:07;;;;;;;10.95;5.50;;;;;;;14.05;65.28;102111.50;5070616;28;20416;-71
2021/06/14 01:08:39;;;;;;;10.68;4.93;;;;;;;14.01;65.38;102116.22;5087109;28;20407;-71
2021/06/14 01:11:32;;;;;;;9.55;4.47;;;;;;;14.00;65.72;102108.53;5077085;28;20550;-71
2021/06/14 01:14:06;;;;;;;12.82;5.13;;;;;;;13.95;65.92;102102.94;5086090;28;20032;-72
2021/06/14 01:16:54;;;;;;;10.82;4.68;;;;;;;13.85;66.48;102095.19;5086214;28;20077;-72
2021/06/14 01:20:03;;;;;;;12.65;5.32;;;;;;;13.70;67.07;102099.25;5068043;28;20743;-72
2021/06/14 01:22:33;;;;;;;10.73;4.78;;;;;;;13.53;67.55;102093.81;5057362;28;20056;-71
2021/06/14 01:25:21;;;;;;;12.93;5.75;;;;;;;13.38;67.18;102092.66;5083115;28;20035;-72
2021/06/14 01:27:53;;;;;;;10.68;4.80;;;;;;;13.25;67.85;102085.13;5088075;28;20034;-72
2021/06/14 01:30:24;;;;;;;8.60;4.00;;;;;;;13.22;68.24;102085.41;5090263;28;20059;-72
2021/06/14 01:32:53;;;;;;;11.68;5.40;;;;;;;13.26;68.27;102076.34;5082694;28;20028;-72
2021/06/14 01:35:42;;;;;;;9.23;4.85;;;;;;;13.30;68.02;102066.44;5066524;28;20415;-72
2021/06/14 01:38:09;;;;;;;15.38;4.95;;;;;;;13.35;67.86;102075.50;5084601;28;20032;-72
2021/06/14 01:40:38;;;;;;;14.32;4.78;;;;;;;13.32;67.80;102070.59;5086617;28;20027;-72
2021/06/14 01:43:08;;;;;;;11.63;5.25;;;;;;;13.24;68.12;102065.25;5070393;28;20439;-72
2021/06/14 01:45:41;;;;;;;9.90;4.20;;;;;;;13.17;68.34;102061.59;5071888;28;20027;-72
2021/06/14 01:48:09;;;;;;;7.63;4.85;;;;;;;13.18;68.57;102064.03;5071302;28;20024;-72
2021/06/14 01:50:39;;;;;;;8.75;4.38;;;;;;;13.19;68.39;102064.88;5071152;28;20032;-72
2021/06/14 01:53:06;;;;;;;11.23;4.97;;;;;;;13.16;68.31;102063.34;5069123;28;20864;-72
2021/06/14 01:55:34;;;;;;;10.10;4.43;;;;;;;13.08;68.72;102060.63;5069918;28;20563;-73
2021/06/14 01:58:06;;;;;;;9.73;4.78;;;;;;;12.95;69.07;102055.75;5087004;28;20035;-72
2021/06/14 02:00:41;;;;;;;11.60;5.40;;;;;;;12.88;69.29;102052.06;5069331;28;20567;-72
2021/06/14 02:03:31;;;;;;;10.15;5.47;;;;;;;12.82;69.59;102052.63;5085054;28;20690;-72
2021/06/14 02:06:05;;;;;;;14.32;5.68;;;;;;;12.78;69.61;102059.88;5065778;28;20035;-73
2021/06/14 02:08:31;;;;;;;12.38;5.35;;;;;;;12.72;69.92;102049.22;5069374;28;20445;-72
2021/06/14 02:10:58;;;;;;;9.85;4.97;;;;;;;12.64;70.27;102053.34;5070268;28;20047;-71
2021/06/14 02:13:25;;;;;;;11.27;5.25;;;;;;;12.59;70.19;102044.31;5083915;28;20059;-72
2021/06/14 02:15:52;;;;;;;9.43;5.00;;;;;;;12.51;70.38;102047.59;5071497;28;20691;-73
2021/06/14 02:18:23;;;;;;;8.52;5.15;;;;;;;12.49;70.93;102048.69;5077532;28;20085;-71
2021/06/14 02:20:52;;;;;;;9.85;5.53;;;;;;;12.50;70.34;102045.94;5080606;28;20054;-72
2021/06/14 02:23:21;;;;;;;14.20;5.80;;;;;;;12.52;70.41;102053.63;5070749;28;20032;-73
2021/06/14 02:25:46;;;;;;;10.52;5.20;;;;;;;12.53;70.26;102056.09;5067762;28;20028;-72
2021/06/14 02:28:12;;;;;;;10.52;5.65;;;;;;;12.57;70.19;102059.25;5075313;28;20057;-73
2021/06/14 02:30:37;;;;;;;9.05;4.93;;;;;;;12.61;70.02;102050.19;5088384;28;20424;-73
2021/06/14 02:33:04;;;;;;;10.88;5.70;;;;;;;12.63;69.98;102056.88;5085709;28;20084;-73
2021/06/14 02:35:31;;;;;;;13.70;6.15;;;;;;;12.61;69.68;102050.19;5069871;28;20027;-72
2021/06/14 02:38:01;;;;;;;13.05;5.40;;;;;;;12.49;70.33;102040.88;5070276;28;20392;-72
2021/06/14 02:40:31;;;;;;;11.13;5.57;;;;;;;12.40;70.26;102039.94;5088703;28;20520;-72
2021/06/14 02:43:07;;;;;;;11.30;6.07;;;;;;;12.34;70.53;102038.72;5070805;28;20107;-72
2021/06/14 02:45:36;;;;;;;10.77;5.05;;;;;;;12.33;70.70;102041.44;5069588;28;20031;-72
2021/06/14 02:48:09;;;;;;;13.05;5.40;;;;;;;12.32;70.62;102045.00;5070254;28;20511;-72
2021/06/14 02:50:38;;;;;;;10.60;5.22;;;;;;;12.31;70.67;102038.16;5087532;28;20054;-72
2021/06/14 02:53:09;;;;;;;13.30;5.43;;;;;;;12.26;70.67;102038.56;5087360;28;20612;-72
2021/06/14 02:55:46;;;;;;;10.02;5.35;;;;;;;12.18;71.16;102039.25;5068929;28;20073;-72
2021/06/14 02:58:12;;;;;;;16.70;5.97;;;;;;;12.10;71.23;102033.09;5049519;28;20075;-73
2021/06/14 03:00:38;;;;;;;13.82;6.15;;;;;;;12.03;71.51;102031.03;5086807;28;20055;-72
2021/06/14 03:03:06;;;;;;;13.43;5.78;;;;;;;12.00;71.71;102028.72;5087002;28;20028;-72
2021/06/14 03:05:34;;;;;;;12.55;5.78;;;;;;;11.96;71.56;102027.34;5069974;28;20499;-72
2021/06/14 03:08:02;;;;;;;15.95;7.05;;;;;;;11.91;71.77;102020.91;5069827;28;20024;-72
2021/06/14 03:10:33;;;;;;;14.32;6.45;;;;;;;11.87;71.62;102028.94;5069622;28;20031;-72
2021/06/14 03:13:01;;;;;;;11.77;6.63;;;;;;;11.85;71.85;102028.25;5080829;28;20058;-72
2021/06/14 03:15:28;;;;;;;11.65;6.10;;;;;;;11.89;71.53;102023.59;5087720;28;20040;-72
2021/06/14 03:17:56;;;;;;;12.50;6.10;;;;;;;11.94;71.16;102018.88;5069052;28;20043;-72
2021/06/14 03:20:25;;;;;;;12.52;6.15;;;;;;;11.98;71.00;102015.03;5068656;28;20537;-72
2021/06/14 03:22:52;;;;;;;14.30;6.47;;;;;;;12.01;70.85;102008.72;5082453;28;20401;-72
2021/06/14 03:25:19;;;;;;;13.48;5.78;;;;;;;11.97;71.32;102015.97;5069169;28;20023;-72
2021/06/14 03:27:46;;;;;;;11.02;5.68;;;;;;;11.92;71.20;102015.56;5067816;28;20032;-72
2021/06/14 03:30:13;;;;;;;11.13;6.03;;;;;;;11.90;71.59;102014.88;5083768;28;20032;-72
2021/06/14 03:32:43;;;;;;;12.20;5.38;;;;;;;11.88;71.39;102014.16;5085773;28;20059;-72
2021/06/14 03:35:17;;;;;;;15.07;5.50;;;;;;;11.86;71.51;102009.09;5066495;28;20047;-72
2021/06/14 03:37:43;;;;;;;10.10;4.72;;;;;;;11.84;71.26;102002.38;5085988;28;20036;-72
2021/06/14 03:40:11;;;;;;;15.02;5.50;;;;;;;11.81;71.43;102008.69;5063755;28;20036;-72
2021/06/14 03:42:36;;;;;;;9.20;5.70;;;;;;;11.79;71.78;102007.16;5064497;28;20028;-72
2021/06/14 03:45:03;;;;;;;11.30;5.70;;;;;;;11.81;71.81;102011.28;5087222;28;20539;-72
2021/06/14 03:47:28;;;;;;;12.38;5.63;;;;;;;11.84;71.48;102013.59;5079031;28;20036;-72
2021/06/14 03:49:53;;;;;;;11.35;6.38;;;;;;;11.87;71.62;102010.75;5069178;28;20501;-72
2021/06/14 03:52:19;;;;;;;11.65;5.45;;;;;;;11.88;71.31;102012.41;5087477;28;20126;-72
2021/06/14 03:54:44;;;;;;;8.52;5.68;;;;;;;11.90;71.55;102014.88;5083027;28;20590;-72
2021/06/14 03:57:10;;;;;;;16.00;5.97;;;;;;;11.90;71.84;102016.66;5063258;28;20028;-72
2021/06/14 03:59:35;;;;;;;11.45;5.50;;;;;;;11.88;71.87;102009.78;5068519;28;20403;-72
2021/06/14 04:02:00;;;;;;;10.90;5.55;;;;;;;11.84;71.80;102003.19;5087538;28;20093;-72
2021/06/14 04:04:48;;;;;;;10.82;5.72;;;;;;;11.78;71.97;102002.94;5084855;28;20681;-72
2021/06/14 04:07:40;;;;;;;17.52;6.82;;;;;;;11.70;72.59;101995.81;5052111;28;20047;-72
2021/06/14 04:10:07;;;;;;;14.20;6.55;;;;;;;11.66;72.94;101997.84;5084570;28;20036;-73
2021/06/14 04:12:33;;;;;;;15.38;6.53;;;;;;;11.68;73.04;102001.13;5081183;28;20029;-72
2021/06/14 04:14:59;;;;;;;15.05;7.15;;;;;;;11.81;72.81;101995.69;5086031;28;20036;-72
2021/06/14 04:17:28;;;;;;;18.10;6.95;;;;;;;11.94;72.41;101992.03;5067732;28;20038;-72
2021/06/14 04:19:53;;;;;;;15.40;6.95;;;;;;;12.29;70.96;101994.09;5083414;28;20032;-73
2021/06/14 04:22:19;;;;;;;16.75;6.80;;;;;;;12.37;70.69;101996.81;5086926;28;20354;-72
2021/06/14 04:24:44;;;;;;;14.63;6.35;;;;;;;12.41;70.71;101981.75;5086168;28;20028;-73
2021/06/14 04:27:10;;;;;;;13.73;6.10;;;;;;;12.57;69.90;101992.41;5084004;28;20234;-72
2021/06/14 04:29:35;;;;;;;13.60;5.68;;;;;;;12.57;70.06;101994.19;5082545;28;20031;-72
2021/06/14 04:32:01;;;;;;;11.27;5.25;;;;;;;12.66;69.69;101993.34;5068173;28;20024;-72
2021/06/14 04:34:27;;;;;;;15.80;5.22;;;;;;;12.77;69.50;101997.56;5064000;28;20268;-72
2021/06/14 04:36:53;;;;;;;11.07;5.65;;;;;;;12.86;69.01;101996.72;5085072;28;20023;-72
2021/06/14 04:39:18;;;;;;;13.20;5.07;;;;;;;12.91;68.80;101999.72;5085390;28;20028;-72
2021/06/14 04:41:44;;;;;;;10.50;4.97;;;;;;;12.95;68.97;102001.06;5084020;28;20083;-72
2021/06/14 04:44:10;;;;;;;13.05;5.65;;;;;;;13.05;68.44;102001.88;5082803;28;20396;-72
2021/06/14 04:46:35;;;;;;;12.30;5.55;;;;;;;13.17;67.69;101997.28;5085795;28;20061;-72
2021/06/14 04:49:01;;;;;;;11.40;5.22;;;;;;;13.28;67.80;101998.06;5088027;28;20043;-72
2021/06/14 04:51:27;;;;;;;13.60;5.25;;;;;;;13.54;67.11;101996.47;5086487;28;20449;-72
2021/06/14 04:53:52;;;;;;;13.98;5.40;;;;;;;13.59;67.29;101981.19;5085476;28;20028;-72
2021/06/14 04:56:18;;;;;;;13.18;5.13;;;;;;;13.62;67.07;101980.91;5088838;28;20094;-72
2021/06/14 04:58:43;;;;;;;11.38;5.43;;;;;;;13.86;65.99;101981.28;5084492;28;20073;-72
2021/06/14 05:01:09;;;;;;;12.25;4.40;;;;;;;13.96;65.56;101982.84;5084771;28;20388;-72
2021/06/14 05:03:35;;;;;;;11.38;4.65;;;;;;;13.98;65.60;101985.31;5085978;28;20085;-72
2021/06/14 05:06:01;;;;;;;15.68;5.13;;;;;;;14.10;65.18;101986.72;5089244;28;20042;-72
2021/06/14 05:08:26;;;;;;;9.48;4.72;;;;;;;14.20;64.80;101987.47;5065746;28;20091;-73
2021/06/14 05:10:52;;;;;;;12.60;5.10;;;;;;;14.33;63.47;101978.41;5068940;28;20032;-72
2021/06/14 05:13:17;;;;;;;9.30;4.70;;;;;;;14.44;63.61;101977.34;5089192;28;20616;-72
2021/06/14 05:15:43;;;;;;;14.45;4.95;;;;;;;14.59;62.92;101984.47;5089640;28;20539;-72
2021/06/14 05:18:09;;;;;;;9.80;5.18;;;;;;;14.72;62.70;101983.25;5067715;28;20423;-71
2021/06/14 05:20:35;;;;;;;12.25;5.50;;;;;;;14.75;62.29;101981.16;5087627;28;20032;-71
2021/06/14 05:23:04;;;;;;;11.00;5.00;;;;;;;14.88;62.90;101990.34;5086878;28;20414;-72
2021/06/14 05:25:31;;;;;;;14.70;5.05;;;;;;;15.04;61.62;101981.78;5081125;28;20036;-72
2021/06/14 05:27:57;;;;;;;12.75;4.82;;;;;;;15.17;61.03;101980.38;5083640;28;20035;-71
2021/06/14 05:30:23;;;;;;;8.85;4.72;;;;;;;15.30;60.50;101977.31;5086055;28;20088;-71
2021/06/14 05:32:49;;;;;;;12.10;4.60;;;;;;;15.43;60.96;101987.31;5086737;28;20122;-71
2021/06/14 05:35:14;;;;;;;11.20;4.85;;;;;;;15.63;59.54;101982.63;5088441;28;20133;-71
2021/06/14 05:37:40;;;;;;;19.02;4.93;;;;;;;15.73;58.69;101991.19;5087565;28;20132;-72
2021/06/14 05:40:07;;;;;;;11.23;4.88;;;;;;;15.86;59.28;101990.72;5066918;28;20529;-73
2021/06/14 05:42:34;;;;;;;13.07;5.43;;;;;;;16.11;59.00;101995.97;5087021;28;20094;-72
2021/06/14 05:45:00;;;;;;;15.40;5.70;;;;;;;16.20;58.55;101994.13;5069663;28;20027;-72
2021/06/14 05:47:55;;;;;;;13.55;4.85;;;;;;;16.49;57.85;101991.03;5085039;28;20043;-71
2021/06/14 05:50:20;;;;;;;14.73;5.60;;;;;;;16.47;57.62;101991.19;5042623;28;20163;-71
2021/06/14 05:52:46;;;;;;;12.13;5.20;;;;;;;16.66;57.85;101989.19;5085264;28;20127;-71
2021/06/14 05:55:12;;;;;;;12.93;5.60;;;;;;;16.99;56.29;101991.72;5066285;28;20408;-72
2021/06/14 05:57:37;;;;;;;12.93;5.00;;;;;;;17.27;55.83;101990.31;5070249;28;20039;-72
2021/06/14 06:00:08;;;;;;;13.57;5.38;;;;;;;17.40;55.58;101989.75;5084694;28;20115;-73
2021/06/14 06:02:38;;;;;;;13.77;5.60;;;;;;;17.65;55.27;101990.44;5086246;28;20035;-72
2021/06/14 06:05:06;;;;;;;11.32;5.55;;;;;;;17.84;54.20;101988.34;5087241;28;20048;-71
2021/06/14 06:07:32;;;;;;;12.82;5.43;;;;;;;17.84;53.94;101983.94;5088823;28;20098;-72
2021/06/14 06:09:57;;;;;;;15.00;5.50;;;;;;;18.03;53.71;101977.38;5054998;28;20119;-72
2021/06/14 06:12:23;;;;;;;9.32;4.93;;;;;;;18.23;53.00;101974.25;5087955;28;20409;-72
2021/06/14 06:14:48;;;;;;;12.63;5.50;;;;;;;18.43;53.34;101972.75;5088097;28;20111;-72
2021/06/14 06:17:14;;;;;;;11.70;5.43;;;;;;;18.79;52.59;101969.41;5088604;28;20031;-74
2021/06/14 06:19:39;;;;;;;12.07;5.22;;;;;;;19.22;52.24;101974.81;5085104;28;20035;-72
2021/06/14 06:22:05;;;;;;;16.73;4.88;;;;;;;19.58;50.84;101971.34;5083198;28;20028;-72
2021/06/14 06:24:31;;;;;;;9.02;5.15;;;;;;;19.88;49.53;101978.34;5070349;28;20097;-72
2021/06/14 06:26:58;;;;;;;14.23;5.32;;;;;;;19.98;49.64;101978.81;5084449;28;20024;-73
2021/06/14 06:29:23;;;;;;;13.23;5.50;;;;;;;19.74;49.74;101980.03;5083090;28;20653;-72
2021/06/14 06:31:49;;;;;;;14.60;5.07;;;;;;;19.84;49.38;101975.28;5087382;28;20119;-73
2021/06/14 06:34:14;;;;;;;15.98;5.82;;;;;;;19.89;49.82;101977.31;5070571;28;20026;-73
2021/06/14 06:36:40;;;;;;;9.68;4.90;;;;;;;20.24;49.42;101983.47;5085147;28;20047;-72
2021/06/14 06:39:05;;;;;;;13.40;5.38;;;;;;;20.72;48.46;101983.63;5082839;28;20067;-72
2021/06/14 06:41:31;;;;;;;10.52;4.55;;;;;;;21.10;47.93;101985.00;5083996;28;20043;-73
2021/06/14 06:43:56;;;;;;;10.23;4.82;;;;;;;21.34;46.95;101983.63;5086112;28;20035;-73
2021/06/14 06:46:21;;;;;;;14.05;5.95;;;;;;;21.73;46.58;101979.50;5088312;28;20441;-73
2021/06/14 06:48:47;;;;;;;12.13;5.50;;;;;;;21.85;45.06;101980.53;5071650;28;20028;-73
2021/06/14 06:51:13;;;;;;;15.60;5.40;;;;;;;21.69;44.19;101988.81;5087534;28;20078;-73
2021/06/14 06:53:38;;;;;;;15.00;6.15;;;;;;;21.53;44.65;101995.28;5087255;28;20436;-73
2021/06/14 06:56:05;;;;;;;11.40;5.60;;;;;;;21.66;44.13;101987.41;5082458;28;20031;-73
2021/06/14 06:58:31;;;;;;;15.32;6.28;;;;;;;21.64;44.16;101992.06;5087268;28;20114;-73
2021/06/14 07:00:58;;;;;;;13.40;4.65;;;;;;;22.16;44.09;101979.88;5062788;28;20124;-73
2021/06/14 07:03:23;;;;;;;14.00;5.13;;;;;;;22.59;42.83;101973.34;5087447;28;20387;-73
2021/06/14 07:05:49;;;;;;;10.82;4.88;;;;;;;22.74;43.84;101975.75;5087974;28;20038;-73
2021/06/14 07:08:14;;;;;;;13.13;5.72;;;;;;;23.36;42.74;101977.91;5086530;28;20522;-73
2021/06/14 07:10:40;;;;;;;13.10;5.90;;;;;;;23.38;40.65;101974.03;5068751;28;20020;-73
2021/06/14 07:13:07;;;;;;;10.95;5.10;;;;;;;23.74;40.53;101977.06;5087497;28;20441;-73
2021/06/14 07:15:33;;;;;;;14.32;4.85;;;;;;;24.04;40.49;101967.44;5072481;28;20506;-73
2021/06/14 07:17:59;;;;;;;13.00;4.93;;;;;;;24.03;40.29;101962.38;5084260;28;20052;-73
2021/06/14 07:20:25;;;;;;;12.80;4.70;;;;;;;24.29;39.51;101956.81;5069088;28;20044;-73
2021/06/14 07:22:51;;;;;;;9.18;4.40;;;;;;;24.46;39.61;101956.22;5086681;28;20020;-73
2021/06/14 07:25:17;;;;;;;11.43;4.75;;;;;;;24.17;39.59;101953.28;5087694;28;20512;-73
2021/06/14 07:27:43;;;;;;;10.40;5.05;;;;;;;24.23;39.28;101957.69;5068361;28;20113;-73
2021/06/14 07:30:14;;;;;;;9.32;4.22;;;;;;;24.67;38.63;101955.81;5080005;28;20020;-73
2021/06/14 07:32:41;;;;;;;13.02;4.35;;;;;;;24.94;38.74;101947.53;5066642;28;20032;-75
2021/06/14 07:35:07;;;;;;;10.75;4.47;;;;;;;24.26;38.78;101941.38;5069370;28;20348;-73
2021/06/14 07:37:33;;;;;;;10.25;4.70;;;;;;;24.29;39.45;101935.59;5069568;28;20079;-73
2021/06/14 07:39:58;;;;;;;9.15;4.38;;;;;;;24.31;39.37;101938.03;5064978;28;20504;-73
2021/06/14 07:42:24;;;;;;;13.07;4.60;;;;;;;24.47;39.16;101931.34;5066946;28;20477;-73
2021/06/14 07:44:49;;;;;;;11.82;4.10;;;;;;;24.75;39.23;101920.25;5080270;28;20032;-74
2021/06/14 07:47:15;;;;;;;13.63;4.90;;;;;;;25.16;38.07;101918.63;5085144;28;20038;-73
2021/06/14 07:49:41;;;;;;;8.43;4.10;;;;;;;25.15;37.67;101932.16;5083764;28;20177;-73
2021/06/14 07:52:07;;;;;;;10.48;4.20;;;;;;;24.98;37.29;101924.81;5085577;28;20388;-74
2021/06/14 07:54:33;;;;;;;10.70;4.22;;;;;;;25.00;38.28;101921.94;5084671;28;20515;-74
2021/06/14 07:56:59;;;;;;;11.25;4.38;;;;;;;25.62;36.07;101926.97;5085862;28;20040;-73
2021/06/14 07:59:25;;;;;;;9.73;4.35;;;;;;;25.43;37.74;101918.28;5068143;28;20531;-73
2021/06/14 08:01:51;;;;;;;10.05;4.63;;;;;;;25.98;35.94;101922.50;5079258;28;20075;-74
2021/06/14 08:04:16;;;;;;;14.52;4.35;;;;;;;26.39;35.99;101910.03;5087319;28;20139;-73
2021/06/14 08:06:42;;;;;;;16.30;4.40;;;;;;;26.43;34.86;101908.56;5089537;28;20182;-74
2021/06/14 08:09:10;;;;;;;13.05;4.55;;;;;;;26.28;35.88;101908.25;5070033;28;20043;-73
2021/06/14 08:11:36;;;;;;;8.10;4.13;;;;;;;26.57;35.73;101898.44;5084893;28;20468;-74
2021/06/14 08:14:03;;;;;;;11.40;4.43;;;;;;;26.71;36.65;101894.50;5071282;28;20066;-74
2021/06/14 08:16:29;;;;;;;11.75;4.55;;;;;;;26.99;35.63;101906.97;5086550;28;20040;-74
2021/06/14 08:21:39;;;;;;;17.60;4.75;;;;;;;27.36;34.40;101914.50;5086214;28;20111;-74
2021/06/14 08:26:49;;;;;;;11.48;4.38;;;;;;;28.45;33.24;101895.50;5090170;28;20316;-74
2021/06/14 08:29:15;;;;;;;13.80;5.18;;;;;;;28.47;33.24;101896.06;5089456;28;20051;-74
2021/06/14 08:31:41;;;;;;;11.82;4.07;;;;;;;28.48;32.41;101885.13;5071225;28;20496;-74
2021/06/14 08:34:10;;;;;;;9.27;3.92;;;;;;;28.85;32.28;101879.13;5089963;28;20035;-74
2021/06/14 08:36:36;;;;;;;15.98;5.28;;;;;;;28.58;33.14;101876.47;5090408;28;20032;-74
2021/06/14 08:39:04;;;;;;;14.10;3.40;;;;;;;28.79;33.45;101872.13;5088800;28;20388;-74
2021/06/14 08:41:30;;;;;;;15.13;4.22;;;;;;;29.07;32.46;101872.91;5085672;28;20035;-74
2021/06/14 08:43:58;;;;;;;7.22;3.50;;;;;;;28.93;31.97;101870.66;5062841;28;20024;-74
2021/06/14 08:46:25;;;;;;;9.13;4.25;;;;;;;29.10;29.57;101875.03;5072317;28;20418;-73
2021/06/14 08:48:51;;;;;;;8.15;3.83;;;;;;;29.37;30.96;101880.38;5088480;28;20031;-74
2021/06/14 08:51:17;;;;;;;8.02;3.30;;;;;;;29.00;29.61;101877.66;5069964;28;20024;-74
2021/06/14 08:53:43;;;;;;;11.75;4.03;;;;;;;28.87;30.41;101881.53;5091840;28;20027;-74
2021/06/14 08:56:09;;;;;;;7.43;3.15;;;;;;;29.01;29.65;101872.06;5091903;28;20110;-73
2021/06/14 08:58:35;;;;;;;9.95;3.88;;;;;;;29.12;30.67;101870.25;5087394;28;20177;-74
2021/06/14 09:01:01;;;;;;;11.00;4.72;;;;;;;28.89;29.31;101861.53;5071545;28;20028;-74
2021/06/14 09:03:28;;;;;;;9.68;3.58;;;;;;;29.39;30.10;101856.88;5090064;28;20146;-74
2021/06/14 09:05:54;;;;;;;17.30;3.20;;;;;;;29.53;28.68;101848.41;5088849;28;20810;-74
2021/06/14 09:08:22;;;;;;;15.15;3.80;;;;;;;29.47;29.23;101855.59;5086275;28;20016;-74
2021/06/14 09:10:48;;;;;;;11.70;3.97;;;;;;;29.39;28.20;101846.19;5072204;28;20093;-75
2021/06/14 09:13:23;;;;;;;9.02;3.20;;;;;;;29.28;26.88;101837.31;5087333;28;20051;-74
2021/06/14 09:16:12;;;;;;;13.40;5.10;;;;;;;28.97;28.64;101841.59;5089447;28;20156;-74
2021/06/14 09:18:39;;;;;;;13.07;4.28;;;;;;;28.89;29.18;101829.50;5087785;28;20080;-75
2021/06/14 09:21:06;;;;;;;10.43;2.92;;;;;;;28.85;29.87;101824.94;5088178;28;20028;-74
2021/06/14 09:23:51;;;;;;;8.85;3.00;;;;;;;29.19;29.27;101824.69;5089266;28;20055;-75
2021/06/14 09:26:29;;;;;;;6.10;3.28;;;;;;;29.39;28.00;101818.69;5088629;28;20036;-75
2021/06/14 09:29:06;;;;;;;12.07;4.03;;;;;;;28.98;26.78;101813.84;5085584;28;20047;-75
2021/06/14 09:31:45;;;;;;;6.38;2.85;;;;;;;29.19;27.42;101822.81;5088763;28;20120;-74
2021/06/14 09:34:11;;;;;;;6.03;2.60;;;;;;;29.56;26.61;101813.19;5084399;28;20443;-74
2021/06/14 09:36:37;;;;;;;10.32;3.47;;;;;;;29.43;27.45;101809.88;5088475;28;20440;-74
2021/06/14 09:39:20;;;;;;;8.40;2.72;;;;;;;29.39;29.31;101808.81;5086115;28;20448;-75
2021/06/14 09:41:51;;;;;;;10.45;2.72;;;;;;;29.62;28.20;101809.47;5089190;28;20116;-75
2021/06/14 09:44:30;;;;;;;8.82;3.22;;;;;;;29.66;27.16;101803.31;5074487;28;20115;-75
2021/06/14 09:47:04;;;;;;;9.88;3.58;;;;;;;29.88;28.92;101797.84;5086936;28;20044;-75
2021/06/14 09:49:30;;;;;;;11.13;2.70;;;;;;;30.14;26.72;101797.09;5066758;28;20397;-75
2021/06/14 09:51:56;;;;;;;9.48;3.00;;;;;;;29.98;26.06;101809.63;5088894;28;20038;-75
2021/06/14 09:54:27;;;;;;;3.85;2.30;;;;;;;29.77;26.81;101814.09;5088641;28;20466;-75
2021/06/14 09:56:54;;;;;;;9.50;3.50;;;;;;;29.33;26.80;101815.19;5089109;28;20058;-74
2021/06/14 09:59:28;;;;;;;16.60;4.10;;;;;;;29.10;28.18;101819.81;5082060;28;20024;-75
2021/06/14 10:02:16;;;;;;;6.88;2.80;;;;;;;29.56;28.00;101813.97;5062343;28;20024;-75
2021/06/14 10:04:42;;;;;;;10.43;3.65;;;;;;;29.62;28.48;101807.59;5088306;28;20036;-75
2021/06/14 10:07:16;;;;;;;13.23;3.03;;;;;;;29.74;27.22;101806.59;5088006;28;20065;-75
2021/06/14 10:09:50;;;;;;;10.13;2.67;;;;;;;29.95;26.90;101807.47;5088274;28;20032;-74
2021/06/14 10:12:26;;;;;;;8.75;2.67;;;;;;;29.95;27.42;101802.13;5088189;28;20093;-75
2021/06/14 10:14:52;;;;;;;8.43;2.60;;;;;;;30.16;26.58;101798.44;5087540;28;20036;-75
2021/06/14 10:17:36;;;;;;;9.83;3.03;;;;;;;30.12;25.99;101799.22;5084321;28;20484;-75
2021/06/14 10:20:22;;;;;;;8.10;2.92;;;;;;;30.18;25.96;101799.00;5086817;28;20727;-75
2021/06/14 10:22:49;;;;;;;6.85;2.65;;;;;;;30.48;25.60;101802.81;5069541;28;20072;-75
2021/06/14 10:25:17;;;;;;;9.93;2.72;;;;;;;30.62;26.19;101787.81;5088229;28;20032;-75
2021/06/14 10:27:44;;;;;;;7.80;2.95;;;;;;;30.02;25.27;101792.78;5085449;28;20169;-75
2021/06/14 10:30:13;;;;;;;6.05;2.47;;;;;;;30.13;26.73;101798.19;5068705;28;20171;-75
2021/06/14 10:32:41;;;;;;;9.95;2.55;;;;;;;30.44;25.78;101786.50;5071553;28;20038;-75
2021/06/14 10:35:08;;;;;;;5.93;2.30;;;;;;;30.72;26.73;101778.97;5083592;28;20039;-75
2021/06/14 10:37:41;;;;;;;6.22;3.00;;;;;;;30.95;26.71;101782.22;5062128;28;20026;-74
2021/06/14 10:40:09;;;;;;;12.25;3.58;;;;;;;30.74;26.33;101786.75;5065918;28;20035;-75
2021/06/14 10:42:34;;;;;;;6.10;2.63;;;;;;;30.35;26.00;101781.94;5087326;28;20689;-72
2021/06/14 10:45:01;;;;;;;7.55;2.90;;;;;;;30.44;26.63;101781.16;5086563;28;20034;-73
2021/06/14 10:47:27;;;;;;;5.38;2.58;;;;;;;30.51;28.13;101788.88;5081243;28;20035;-72
2021/06/14 10:49:55;;;;;;;7.80;2.47;;;;;;;30.79;26.59;101794.78;5080128;28;20125;-72
2021/06/14 10:52:22;;;;;;;7.38;2.55;;;;;;;30.77;26.50;101789.69;5082923;28;20039;-72
2021/06/14 10:54:48;;;;;;;6.97;3.08;;;;;;;30.51;25.11;101780.88;5085487;28;20055;-72
2021/06/14 10:57:14;;;;;;;5.57;2.60;;;;;;;30.57;27.45;101787.03;5084743;28;20035;-73
2021/06/14 10:59:45;;;;;;;7.53;2.53;;;;;;;30.47;27.55;101785.94;5083387;28;20563;-72
2021/06/14 11:02:13;;;;;;;5.63;2.42;;;;;;;30.85;26.49;101791.03;5086904;28;20085;-72
2021/06/14 11:04:40;;;;;;;6.18;3.03;;;;;;;30.90;26.44;101776.84;5083743;28;20584;-72
2021/06/14 11:07:05;;;;;;;7.68;3.00;;;;;;;30.56;27.37;101777.41;5085551;28;20036;-72
2021/06/14 11:09:42;;;;;;;9.43;2.70;;;;;;;30.70;26.96;101772.31;5066576;28;20096;-72
2021/06/14 11:12:09;;;;;;;6.07;2.20;;;;;;;30.98;25.79;101762.94;5067311;28;20567;-72
2021/06/14 11:14:40;;;;;;;3.58;2.08;;;;;;;31.02;23.59;101755.97;5086092;28;20411;-72
2021/06/14 11:17:26;;;;;;;6.65;2.72;;;;;;;30.93;24.60;101757.59;5086696;28;20418;-72
2021/06/14 11:19:51;;;;;;;6.93;2.50;;;;;;;30.84;26.08;101758.09;5057590;28;20263;-72
2021/06/14 11:22:18;;;;;;;5.60;2.67;;;;;;;30.74;25.98;101752.78;5084827;28;20405;-72
2021/06/14 11:24:45;;;;;;;4.80;2.65;;;;;;;30.67;26.87;101765.63;5081264;28;20031;-72
2021/06/14 11:27:11;;;;;;;16.45;3.83;;;;;;;30.72;26.58;101775.50;5084421;28;20028;-72
2021/06/14 11:29:48;;;;;;;4.60;2.30;;;;;;;30.61;25.52;101761.31;5067701;28;20071;-72
2021/06/14 11:32:18;;;;;;;9.40;2.97;;;;;;;30.95;27.33;101763.47;5085077;28;20123;-72